Juneau, AK

7:18 PM AKST on February 11, 2016 (GMT -0900)
Juneau International | | Change Station
CLOSE
Current Station
Airport
Location: Juneau,
Elevation: 23 ft
Nearby Weather Stations

Elev 23 ft 58.35 °N, 134.58 °W | Updated 25 minutes ago

Overcast
Overcast
40 °F
Feels Like 37 °F
N
5
Wind Variable Wind from WNW

Today
High -- | Low -- °F
--% Chance of Precip.
Yesterday
High -- | Low -- °F
Precip. -- in
Pressure 29.79 in
Visibility 10.0 miles
Clouds Scattered Clouds 10000 ft
Mostly Cloudy 12000 ft
Overcast 20000 ft
Windchill 37 °F
Dew Point 38 °F
Humidity 93%
Rainfall 0.10 in
Snow Depth Not available.
7:41 AM 4:44 PM
Waxing Crescent, 17% visible
METAR PAJN 120353Z 29004KT 10SM SCT100 BKN120 OVC200 04/03 A2979 RMK AO2 SLP088 T00440033
Pressure 29.79 in
Visibility 10.0 miles
Clouds Scattered Clouds 10000 ft
Mostly Cloudy 12000 ft
Overcast 20000 ft
Windchill 37 °F
Dew Point 38 °F
Humidity 93%
Rainfall 0.10 in
Snow Depth Not available.
7:41 AM 4:44 PM
Waxing Crescent, 17% visible
METAR PAJN 120353Z 29004KT 10SM SCT100 BKN120 OVC200 04/03 A2979 RMK AO2 SLP088 T00440033

10-Day Weather Forecast

Almanac

Astronomy

Feb. 11, 2016 Rise Set
Actual Time
Civil Twilight
Nautical Twilight
Astronomical Twilight
Moon
Length of Visible Light
Length of Day
Tomorrow will be .
, % of the Moon is Illuminated

Today's Extremes

State Highs State Lows

Community

WunderPhotos

Upload Photos

1,892,265 photos uploaded!

WunderBlog® & News

Nearby

Air Quality

  Air Quality AQ Index Pollutant
Not available.

Snow Depth

Station Depth Elevation

Earthquake Activity

City Distance Mag. Time & Date
Minimum magnitude displayed is 2.5.

Coastal Water Temperatures

Place Temperature

Stations

Nearby Weather Stations

Station Location Temp. Windchill Dew Point Humidity Wind Precip. Elev Updated Type
                   

Watches & Warnings

There are currently no watches in effect.